Search for airport 
image banner adimage banner adimage banner ad
image banner ad

0CL3 - John Nichol's Field

Located in Chula Vista, United States

ICAO - 0CL3, IATA -

Data provided by Airmate  

General information

Coordinates: N32°38'0" W116°53'25"
Elevation is 500 feet MSL.
Magnetic variation is 13° East
View others Airports in California

Operational data

Special qualification required
Current time UTC:
Current local time:
Weather at : KSDM - Brown Field Muni ( 11 km )
METAR: KSDM 191253Z AUTO 09003KT 10SM CLR 07/06 A2999 RMK AO2 SLP155 T00720056
View NOTAMs / SUP AIP / TFR affecting this airport [VIEW]
Communications frequencies: [VIEW]

Runways:

RWY identifierQFULength (ft)Width (ft)SurfaceLDA (ft)
09203630ASPH
27203630ASPH

Airport contact information

Address: Chula Vista United States

Satellite view of 0CL3